Time;durP1;ratioP1;P1;durP2;ratioP2;P2;SDS_P1;SDS_P2;PMS_P1;PMS_P2;Temp;Humidity;BMP_temperature;BMP_pressure;BME280_temperature;BME280_humidity;BME280_pressure;Samples;Min_cycle;Max_cycle;Signal;HPM_P1;HPM_P2
2021/04/16 00:04:48;;;;;;;4.68;2.70;;;;;;;3.08;68.05;98312.41;10364328;28;20050;-75
2021/04/16 00:10:15;;;;;;;4.90;2.88;;;;;;;3.04;67.86;98304.47;10363393;28;20049;-75
2021/04/16 00:15:36;;;;;;;3.42;2.15;;;;;;;3.05;68.13;98308.72;10350918;28;20392;-75
2021/04/16 00:20:57;;;;;;;2.53;1.98;;;;;;;3.07;68.40;98299.91;10350375;28;20046;-75
2021/04/16 00:26:16;;;;;;;2.60;2.10;;;;;;;2.99;68.21;98299.81;10363427;28;20107;-75
2021/04/16 00:31:37;;;;;;;2.30;1.80;;;;;;;3.02;68.00;98298.00;10349764;28;20049;-75
2021/04/16 00:36:57;;;;;;;3.08;1.90;;;;;;;2.95;68.03;98293.88;10349704;28;20049;-75
2021/04/16 00:42:17;;;;;;;2.95;1.80;;;;;;;2.91;68.33;98287.94;10349316;28;20048;-75
2021/04/16 00:47:37;;;;;;;3.00;2.00;;;;;;;2.87;68.73;98281.97;10362832;28;20045;-75
2021/04/16 00:53:00;;;;;;;1.90;1.70;;;;;;;2.89;68.51;98284.94;10348926;28;20389;-75
2021/04/16 00:58:21;;;;;;;2.60;1.77;;;;;;;2.90;68.30;98280.94;10335280;28;20046;-75
2021/04/16 01:03:41;;;;;;;3.50;2.00;;;;;;;2.88;68.46;98284.19;10348136;28;20049;-76
2021/04/16 01:09:00;;;;;;;2.63;1.58;;;;;;;2.87;68.51;98281.97;10334447;28;20124;-75
2021/04/16 01:14:20;;;;;;;2.10;1.63;;;;;;;2.85;68.27;98282.50;10347723;28;20038;-75
2021/04/16 01:20:07;;;;;;;2.67;1.70;;;;;;;2.81;68.32;98284.09;10347226;28;20049;-75
2021/04/16 01:25:27;;;;;;;3.70;1.65;;;;;;;2.75;68.70;98280.69;10336767;28;20048;-75
2021/04/16 01:31:22;;;;;;;2.85;1.75;;;;;;;2.77;67.84;98278.91;10333563;28;20053;-75
2021/04/16 01:36:41;;;;;;;1.70;1.20;;;;;;;2.81;68.50;98282.09;10374413;28;20394;-75
2021/04/16 01:42:01;;;;;;;2.08;1.00;;;;;;;2.82;68.46;98280.06;10360857;28;20041;-75
2021/04/16 01:47:21;;;;;;;1.58;1.20;;;;;;;2.81;68.52;98273.09;10360369;28;20466;-75
2021/04/16 01:52:40;;;;;;;2.65;1.20;;;;;;;2.78;68.43;98279.63;10332962;28;20061;-74
2021/04/16 01:58:00;;;;;;;1.77;1.23;;;;;;;2.70;68.50;98267.75;10332956;28;20049;-74
2021/04/16 02:03:20;;;;;;;1.90;1.13;;;;;;;2.61;68.62;98259.91;10346222;28;20088;-76
2021/04/16 02:08:40;;;;;;;2.30;1.73;;;;;;;2.39;69.05;98259.03;10346410;28;20412;-74
2021/04/16 02:13:59;;;;;;;2.55;1.33;;;;;;;2.23;68.88;98257.31;10332534;28;20393;-74
2021/04/16 02:19:19;;;;;;;1.65;1.10;;;;;;;2.11;69.44;98264.97;10346082;28;20045;-75
2021/04/16 02:24:39;;;;;;;1.88;0.90;;;;;;;2.12;68.85;98257.47;10332273;28;20046;-74
2021/04/16 02:29:59;;;;;;;2.03;0.80;;;;;;;2.21;68.95;98248.81;10347822;28;20046;-74
2021/04/16 02:35:19;;;;;;;1.33;1.00;;;;;;;2.28;68.89;98248.19;10353904;28;20109;-74
2021/04/16 02:40:39;;;;;;;2.80;1.05;;;;;;;2.27;69.29;98250.19;10353618;28;20481;-74
2021/04/16 02:45:59;;;;;;;1.73;1.20;;;;;;;2.23;69.38;98249.78;10367149;28;20540;-74
2021/04/16 02:51:18;;;;;;;2.63;1.10;;;;;;;2.18;69.31;98236.81;10353433;28;20058;-74
2021/04/16 02:56:40;;;;;;;2.22;0.90;;;;;;;2.20;68.74;98244.56;10353008;28;20045;-74
2021/04/16 03:02:00;;;;;;;2.03;0.90;;;;;;;2.21;69.01;98235.75;10352950;28;20042;-74
2021/04/16 03:07:20;;;;;;;1.60;0.70;;;;;;;2.28;68.77;98239.94;10339374;28;20053;-75
2021/04/16 03:12:40;;;;;;;1.70;0.93;;;;;;;2.31;69.34;98227.84;10339096;28;20385;-75
2021/04/16 03:17:59;;;;;;;1.98;0.65;;;;;;;2.36;68.90;98235.28;10352296;28;20551;-75
2021/04/16 03:23:19;;;;;;;1.48;0.70;;;;;;;2.40;68.93;98235.69;10338549;28;20489;-75
2021/04/16 03:28:39;;;;;;;1.20;0.80;;;;;;;2.46;68.72;98235.63;10351816;28;20034;-76
2021/04/16 03:33:59;;;;;;;1.08;0.73;;;;;;;2.46;68.97;98236.34;10349535;28;20046;-76
2021/04/16 03:39:18;;;;;;;1.83;1.08;;;;;;;2.44;68.60;98238.16;10351594;28;20046;-76
2021/04/16 03:44:38;;;;;;;1.40;0.63;;;;;;;2.45;68.93;98245.91;10363100;28;20042;-75
2021/04/16 03:49:58;;;;;;;1.08;0.70;;;;;;;2.45;69.23;98240.38;10349749;28;20042;-76
2021/04/16 03:55:18;;;;;;;0.85;0.55;;;;;;;2.46;68.71;98239.09;10350651;28;20058;-76
2021/04/16 04:00:39;;;;;;;1.30;1.00;;;;;;;2.49;68.68;98238.03;10336542;28;20362;-76
2021/04/16 04:05:59;;;;;;;1.67;0.93;;;;;;;2.50;68.72;98242.28;10330275;28;20042;-76
2021/04/16 04:11:19;;;;;;;1.42;0.80;;;;;;;2.53;68.37;98244.00;10345820;28;20455;-75
2021/04/16 04:16:57;;;;;;;3.00;1.13;;;;;;;2.56;68.66;98237.44;10337084;28;20493;-76
2021/04/16 04:22:17;;;;;;;1.75;1.10;;;;;;;2.57;68.62;98243.69;10331049;28;20073;-75
2021/04/16 04:27:36;;;;;;;2.38;1.38;;;;;;;2.44;68.94;98257.44;10363175;28;20050;-76
2021/04/16 04:32:57;;;;;;;1.48;0.80;;;;;;;2.46;69.00;98260.41;10349568;28;20108;-75
2021/04/16 04:38:16;;;;;;;1.42;0.93;;;;;;;2.49;69.02;98264.88;10348970;28;20041;-77
2021/04/16 04:43:36;;;;;;;1.23;0.80;;;;;;;2.53;69.12;98266.06;10376250;28;20041;-77
2021/04/16 04:48:56;;;;;;;1.75;0.90;;;;;;;2.62;69.14;98253.13;10368894;28;20092;-75
2021/04/16 04:54:17;;;;;;;1.73;0.98;;;;;;;2.69;69.01;98255.25;10307602;28;20058;-75
2021/04/16 04:59:37;;;;;;;2.05;1.10;;;;;;;2.73;68.96;98252.94;10292429;28;20047;-76
2021/04/16 05:04:59;;;;;;;1.27;0.80;;;;;;;2.83;69.09;98254.00;10291320;28;20050;-75
2021/04/16 05:10:19;;;;;;;1.35;0.73;;;;;;;2.91;69.29;98252.09;10318416;28;20499;-77
2021/04/16 05:15:39;;;;;;;1.27;0.82;;;;;;;2.97;68.80;98247.19;10320678;28;20042;-76
2021/04/16 05:20:59;;;;;;;2.55;1.05;;;;;;;3.07;68.37;98251.00;10307115;28;20057;-76
2021/04/16 05:26:19;;;;;;;2.38;0.50;;;;;;;3.09;68.21;98262.25;10320429;28;20046;-75
2021/04/16 05:31:39;;;;;;;3.67;0.93;;;;;;;3.15;68.48;98256.63;10309321;28;20038;-75
2021/04/16 05:36:58;;;;;;;1.95;0.80;;;;;;;3.25;68.30;98267.97;10329228;28;20097;-74
2021/04/16 05:42:19;;;;;;;0.80;0.52;;;;;;;3.30;68.49;98267.13;10319620;28;20045;-76
2021/04/16 05:47:39;;;;;;;1.73;0.70;;;;;;;3.39;68.36;98264.66;10319630;28;20053;-76
2021/04/16 05:53:03;;;;;;;2.15;0.60;;;;;;;3.60;68.46;98275.75;10354652;28;20100;-75
2021/04/16 05:58:22;;;;;;;1.05;0.50;;;;;;;3.77;67.98;98271.91;10373668;28;20038;-76
2021/04/16 06:03:44;;;;;;;2.38;0.70;;;;;;;3.92;67.82;98280.31;10344991;28;20038;-75
2021/04/16 06:09:04;;;;;;;0.98;0.73;;;;;;;4.18;67.59;98285.75;10347860;28;20046;-76
2021/04/16 06:14:23;;;;;;;1.10;0.52;;;;;;;4.36;67.70;98275.78;10292186;28;20046;-75
2021/04/16 06:19:44;;;;;;;1.20;0.60;;;;;;;4.53;67.44;98281.63;10304280;28;20405;-75
2021/04/16 06:25:08;;;;;;;1.60;0.73;;;;;;;4.64;66.99;98274.34;10331953;28;20042;-75
2021/04/16 06:30:28;;;;;;;1.95;0.60;;;;;;;4.67;66.85;98279.53;10291616;28;20069;-75
2021/04/16 06:35:52;;;;;;;1.27;0.50;;;;;;;4.85;66.49;98277.81;10332325;28;20092;-75
2021/04/16 06:41:21;;;;;;;5.50;0.70;;;;;;;5.02;65.92;98282.88;10304773;28;20034;-74
2021/04/16 06:46:44;;;;;;;1.15;0.65;;;;;;;5.06;66.46;98286.06;10331565;28;20050;-75
2021/04/16 06:52:51;;;;;;;1.33;0.70;;;;;;;5.11;65.87;98280.34;10304782;28;20055;-76
2021/04/16 06:58:18;;;;;;;1.50;0.50;;;;;;;5.20;65.62;98279.09;10300202;28;20128;-75
2021/04/16 07:03:46;;;;;;;1.55;0.63;;;;;;;5.16;65.82;98278.72;10317174;28;20042;-76
2021/04/16 07:09:15;;;;;;;2.33;0.60;;;;;;;5.21;65.65;98274.31;10291215;28;20054;-75
2021/04/16 07:14:50;;;;;;;1.00;0.70;;;;;;;5.46;65.46;98283.66;10292297;28;20058;-75
2021/04/16 07:20:11;;;;;;;1.40;0.90;;;;;;;5.50;65.29;98286.84;10325188;28;20042;-77
2021/04/16 07:26:04;;;;;;;1.27;0.70;;;;;;;5.72;65.00;98285.44;10298122;28;20433;-75
2021/04/16 07:31:41;;;;;;;1.58;0.90;;;;;;;5.91;64.45;98288.66;10310814;28;20498;-74
2021/04/16 07:37:14;;;;;;;2.97;2.00;;;;;;;5.79;64.05;98283.97;10298816;28;20046;-74
2021/04/16 07:42:39;;;;;;;3.10;2.00;;;;;;;5.89;64.44;98291.22;10324213;28;20046;-74
2021/04/16 07:48:18;;;;;;;1.88;0.93;;;;;;;6.10;63.44;98298.69;10310305;28;20042;-75
2021/04/16 07:53:44;;;;;;;1.25;0.88;;;;;;;6.38;63.45;98295.78;10338324;28;20058;-74
2021/04/16 07:59:10;;;;;;;1.10;0.60;;;;;;;6.34;62.89;98297.41;10310323;28;20050;-74
2021/04/16 08:04:35;;;;;;;3.00;0.95;;;;;;;6.22;62.97;98300.53;10310832;28;20049;-74
2021/04/16 08:09:56;;;;;;;2.13;0.85;;;;;;;6.29;62.84;98302.59;10283401;28;20073;-74
2021/04/16 08:15:26;;;;;;;1.45;0.70;;;;;;;6.31;62.90;98300.00;10296351;28;20038;-73
2021/04/16 08:20:59;;;;;;;2.30;0.80;;;;;;;6.37;62.73;98301.84;10283834;28;20520;-74
2021/04/16 08:26:21;;;;;;;0.93;0.70;;;;;;;6.70;61.95;98311.13;10308727;28;20387;-74
2021/04/16 08:31:45;;;;;;;2.03;1.15;;;;;;;6.64;61.73;98314.06;10308532;28;20042;-74
2021/04/16 08:37:05;;;;;;;;;;;;;;;6.54;61.20;98319.44;10295920;28;20500;-74
2021/04/16 08:42:31;;;;;;;1.15;0.88;;;;;;;6.68;61.43;98319.25;10335874;28;19921;-74
2021/04/16 08:47:57;;;;;;;8.65;1.15;;;;;;;6.73;61.22;98321.09;10295640;28;20054;-74
2021/04/16 08:53:18;;;;;;;1.67;0.85;;;;;;;6.78;60.98;98318.16;10308197;28;20051;-72
2021/04/16 08:58:38;;;;;;;3.33;0.95;;;;;;;6.97;60.86;98317.78;10294838;28;20497;-75
2021/04/16 09:04:16;;;;;;;1.63;0.95;;;;;;;7.02;60.19;98319.59;10294369;28;20100;-75
2021/04/16 09:09:45;;;;;;;2.20;1.10;;;;;;;6.98;59.89;98321.28;10295061;28;20043;-75
2021/04/16 09:15:25;;;;;;;1.30;1.10;;;;;;;7.18;59.37;98328.66;10306806;28;20097;-75
2021/04/16 09:20:44;;;;;;;1.55;1.05;;;;;;;7.15;59.72;98316.63;10330211;28;20469;-75
2021/04/16 09:26:04;;;;;;;3.22;1.20;;;;;;;7.41;59.26;98320.25;10320449;28;20057;-74
2021/04/16 09:31:26;;;;;;;1.67;1.45;;;;;;;7.37;58.78;98326.22;10293060;28;20176;-74
2021/04/16 09:37:13;;;;;;;4.78;1.33;;;;;;;7.14;58.54;98326.25;10320320;28;20047;-75
2021/04/16 09:42:51;;;;;;;1.40;1.17;;;;;;;7.39;58.53;98325.66;10308856;28;20516;-75
2021/04/16 09:48:17;;;;;;;3.05;1.45;;;;;;;7.36;57.98;98321.97;10305975;28;20054;-73
2021/04/16 09:53:37;;;;;;;2.60;1.80;;;;;;;7.25;58.10;98332.72;10334525;28;20057;-75
2021/04/16 09:59:00;;;;;;;5.07;2.78;;;;;;;7.10;57.68;98323.09;10305859;28;20053;-75
2021/04/16 10:04:54;;;;;;;3.55;2.92;;;;;;;7.07;57.65;98332.56;10292304;28;20042;-74
2021/04/16 10:10:34;;;;;;;3.42;3.08;;;;;;;6.93;57.90;98319.44;10319068;28;20464;-74
2021/04/16 10:15:56;;;;;;;3.85;3.30;;;;;;;6.96;57.80;98319.06;10308467;28;20053;-74
2021/04/16 10:21:16;;;;;;;4.90;3.45;;;;;;;7.46;57.72;98308.22;10318923;28;20522;-73
2021/04/16 12:40:21;;;;;;;5.20;3.65;;;;;;;6.88;55.84;98357.94;10354289;28;20045;-75
2021/04/16 12:45:40;;;;;;;6.15;4.25;;;;;;;6.76;55.84;98354.03;10349043;28;20041;-74
2021/04/16 12:51:00;;;;;;;6.20;4.72;;;;;;;6.64;55.92;98347.34;10348415;28;20034;-75
2021/04/16 12:56:29;;;;;;;5.82;4.20;;;;;;;6.63;55.98;98347.91;10348221;28;20046;-74
2021/04/16 13:01:50;;;;;;;4.72;4.20;;;;;;;6.55;56.24;98337.56;10348755;28;20401;-75
2021/04/16 13:07:10;;;;;;;6.68;3.80;;;;;;;6.57;56.57;98340.53;10348199;28;20104;-74
2021/04/16 13:12:30;;;;;;;5.95;3.40;;;;;;;6.52;56.77;98337.94;10347613;28;20064;-74
2021/04/16 13:18:01;;;;;;;4.28;3.03;;;;;;;6.46;56.73;98340.88;10347666;28;20041;-73
2021/04/16 13:23:21;;;;;;;3.95;2.60;;;;;;;6.51;56.96;98330.91;10348258;28;20042;-75
2021/04/16 13:28:41;;;;;;;3.13;2.28;;;;;;;6.48;56.74;98332.75;10347113;28;20477;-75
2021/04/16 13:34:02;;;;;;;5.35;3.13;;;;;;;6.52;57.13;98327.56;10361517;28;20046;-79
2021/04/16 13:39:22;;;;;;;3.47;2.70;;;;;;;6.63;57.02;98331.28;10384929;28;20050;-81
2021/04/16 13:44:42;;;;;;;4.20;2.25;;;;;;;6.68;57.15;98324.81;10406436;22;20042;-81
2021/04/16 13:50:03;;;;;;;4.15;2.42;;;;;;;6.67;57.15;98312.97;11010926;22;20150;-78
2021/04/16 13:55:23;;;;;;;4.35;2.88;;;;;;;6.73;56.88;98310.00;10387797;28;20041;-77
2021/04/16 14:00:46;;;;;;;3.40;2.60;;;;;;;6.80;57.11;98301.69;10373419;28;20049;-75
2021/04/16 14:06:16;;;;;;;5.07;2.78;;;;;;;6.88;57.04;98307.22;10381848;28;20041;-82
2021/04/16 14:11:36;;;;;;;4.28;3.25;;;;;;;6.78;56.92;98303.53;10382528;28;20103;-81
2021/04/16 14:17:24;;;;;;;4.63;3.05;;;;;;;6.63;56.93;98304.28;10652230;22;20041;-83
2021/04/16 14:23:00;;;;;;;4.13;3.30;;;;;;;6.44;57.40;98299.09;10571354;23;20049;-86
2021/04/16 14:28:21;;;;;;;4.00;3.10;;;;;;;6.34;57.38;98306.47;10377111;28;20045;-80
2021/04/16 14:33:42;;;;;;;4.93;3.47;;;;;;;6.39;57.69;98313.88;10381676;28;20038;-76
2021/04/16 14:39:06;;;;;;;7.65;3.92;;;;;;;6.43;57.99;98308.69;10367958;28;20048;-76
2021/04/16 14:44:26;;;;;;;7.17;4.20;;;;;;;6.45;58.14;98310.91;10381388;28;20041;-77
2021/04/16 14:49:46;;;;;;;7.45;4.50;;;;;;;6.45;57.95;98313.69;10381081;28;20433;-76
2021/04/16 14:55:15;;;;;;;7.22;4.40;;;;;;;6.53;57.74;98317.22;10366712;28;20461;-74
2021/04/16 15:00:35;;;;;;;7.80;4.25;;;;;;;6.65;57.72;98312.03;10367177;28;20042;-77
2021/04/16 15:05:55;;;;;;;11.07;4.07;;;;;;;6.70;57.87;98325.72;10366549;28;20050;-76
2021/04/16 15:11:17;;;;;;;5.82;3.97;;;;;;;6.80;57.60;98317.59;10338866;28;20052;-76
2021/04/16 15:16:44;;;;;;;6.45;3.53;;;;;;;6.77;57.69;98318.72;10339143;28;20477;-75
2021/04/16 15:22:14;;;;;;;4.00;2.90;;;;;;;6.73;57.40;98324.63;10340223;28;20054;-75
2021/04/16 15:27:47;;;;;;;4.70;3.35;;;;;;;6.77;57.46;98315.94;10359031;28;20046;-80
2021/04/16 15:51:06;;;;;;;5.65;3.38;;;;;;;6.59;57.73;98315.75;10343288;28;20057;-80
2021/04/16 15:56:32;;;;;;;4.63;2.65;;;;;;;6.55;57.79;98309.06;10352461;28;20492;-79
2021/04/16 16:01:52;;;;;;;5.93;3.17;;;;;;;6.49;57.91;98305.75;10351703;28;20050;-79
2021/04/16 16:07:13;;;;;;;5.30;3.17;;;;;;;6.55;57.86;98304.25;10337841;28;20053;-79
2021/04/16 16:12:35;;;;;;;4.32;3.20;;;;;;;6.62;57.86;98297.25;10365710;28;20497;-78
2021/04/16 16:17:55;;;;;;;5.07;3.00;;;;;;;6.55;57.58;98309.06;10338003;28;20093;-79
2021/04/16 16:23:18;;;;;;;3.97;2.90;;;;;;;6.49;57.79;98300.94;10350891;28;20058;-76
2021/04/16 16:28:40;;;;;;;;;;;;;;;6.31;57.74;98297.22;10337561;28;20054;-75
2021/04/16 16:33:59;;;;;;;5.13;2.63;;;;;;;6.15;58.10;98294.97;10349507;28;19929;-75
2021/04/16 16:39:19;;;;;;;5.55;3.47;;;;;;;6.03;58.08;98292.56;10335760;28;20045;-75
2021/04/16 16:44:39;;;;;;;4.32;3.40;;;;;;;5.99;58.00;98288.69;10335362;28;20046;-75
2021/04/16 16:49:59;;;;;;;6.10;3.13;;;;;;;5.96;58.15;98290.50;10335186;28;20046;-76
2021/04/16 16:55:19;;;;;;;6.60;3.85;;;;;;;5.91;58.63;98291.44;10348993;28;20045;-79
2021/04/16 17:01:22;;;;;;;9.15;4.38;;;;;;;5.84;58.52;98288.59;10349046;28;20046;-75
2021/04/16 17:06:42;;;;;;;6.35;4.03;;;;;;;5.74;58.83;98282.84;10277621;28;20063;-75
2021/04/16 17:12:04;;;;;;;6.13;4.38;;;;;;;5.70;59.11;98288.03;10250484;28;20486;-75
2021/04/16 17:17:24;;;;;;;7.68;5.13;;;;;;;5.66;58.76;98285.59;10250506;28;20047;-74
2021/04/16 17:22:44;;;;;;;7.30;4.65;;;;;;;5.59;59.46;98286.28;10263722;28;20062;-74
2021/04/16 17:28:06;;;;;;;6.05;4.38;;;;;;;5.50;59.18;98295.16;10250220;28;20057;-76
2021/04/16 17:33:27;;;;;;;10.05;4.07;;;;;;;5.45;59.23;98293.25;10264375;28;20544;-76
2021/04/16 17:38:49;;;;;;;6.13;3.95;;;;;;;5.41;59.52;98293.63;10347017;28;20046;-76
2021/04/16 17:44:13;;;;;;;7.18;4.13;;;;;;;5.38;59.69;98300.25;10346380;28;20493;-75
2021/04/16 17:49:34;;;;;;;;;;;;;;;5.37;59.95;98298.03;10347902;28;20053;-75
2021/04/16 17:54:53;;;;;;;7.07;4.07;;;;;;;5.28;60.62;98307.56;10346530;28;20269;-76
2021/04/16 18:00:15;;;;;;;8.43;4.30;;;;;;;5.21;60.00;98308.28;10345866;28;20054;-75
2021/04/16 18:05:35;;;;;;;8.50;4.97;;;;;;;5.11;60.00;98310.03;10333001;28;20417;-75
2021/04/16 18:10:55;;;;;;;6.97;4.20;;;;;;;5.12;60.50;98319.84;10332464;28;20121;-74
2021/04/16 18:16:15;;;;;;;5.43;3.67;;;;;;;5.06;60.85;98316.50;10331036;28;20041;-74
2021/04/16 18:21:38;;;;;;;6.18;3.90;;;;;;;5.03;60.58;98318.31;10318293;28;20050;-74
2021/04/16 18:27:16;;;;;;;6.70;3.58;;;;;;;5.01;60.87;98322.91;10332185;28;20448;-74
2021/04/16 18:32:36;;;;;;;5.53;3.80;;;;;;;5.04;60.96;98335.66;10347580;28;20430;-75
2021/04/16 18:38:17;;;;;;;7.43;4.05;;;;;;;4.99;61.28;98328.25;10331468;28;20433;-75
2021/04/16 18:43:39;;;;;;;7.75;4.22;;;;;;;5.01;61.23;98326.41;10334308;28;20038;-76
2021/04/16 18:48:58;;;;;;;6.10;4.03;;;;;;;5.02;61.46;98324.38;10332033;28;20057;-77
2021/04/16 18:54:29;;;;;;;5.45;3.88;;;;;;;4.96;61.78;98323.81;10317960;28;20057;-75
2021/04/16 18:59:48;;;;;;;5.68;4.07;;;;;;;4.89;61.89;98316.91;10319050;28;20492;-75
2021/04/16 19:05:10;;;;;;;6.30;4.32;;;;;;;4.84;62.16;98318.56;10332431;28;20072;-76
2021/04/16 19:10:30;;;;;;;10.23;4.80;;;;;;;4.83;61.95;98319.84;10333848;28;20042;-76
2021/04/16 19:15:49;;;;;;;6.15;4.10;;;;;;;4.79;62.04;98322.19;10323407;28;20053;-75
2021/04/16 19:21:22;;;;;;;6.78;3.92;;;;;;;4.72;62.53;98322.88;10323855;28;20062;-76
2021/04/16 19:26:42;;;;;;;7.40;4.00;;;;;;;4.75;62.92;98318.31;10311103;28;20050;-74
2021/04/16 19:32:02;;;;;;;5.80;4.00;;;;;;;4.72;62.53;98313.84;10324728;28;20054;-75
2021/04/16 19:37:29;;;;;;;9.00;4.25;;;;;;;4.78;62.45;98311.69;10324332;28;20371;-76
2021/04/16 19:42:48;;;;;;;6.57;4.20;;;;;;;4.75;62.18;98315.53;10351534;28;20154;-76
2021/04/16 20:21:48;;;;;;;11.73;5.70;;;;;;;4.85;63.20;98305.47;10347476;28;20512;-75
2021/04/16 20:27:16;;;;;;;9.20;5.35;;;;;;;4.83;63.51;98291.44;10321893;28;20047;-75
2021/04/16 20:32:39;;;;;;;8.93;4.90;;;;;;;4.85;63.37;98289.63;10322581;28;20077;-75
2021/04/16 20:37:59;;;;;;;8.27;5.18;;;;;;;4.84;64.19;98282.59;10336039;28;20058;-76
2021/04/16 20:43:42;;;;;;;7.72;4.82;;;;;;;4.86;64.48;98280.03;10322198;28;20441;-75
2021/04/16 20:49:15;;;;;;;8.82;5.45;;;;;;;4.85;63.68;98284.06;10346964;28;20088;-75
2021/04/16 20:54:38;;;;;;;9.38;5.40;;;;;;;4.86;63.89;98285.56;10364278;28;20041;-76
2021/04/16 20:59:59;;;;;;;10.73;5.28;;;;;;;4.93;63.98;98291.69;10364768;28;20038;-75
2021/04/16 21:05:29;;;;;;;8.45;4.30;;;;;;;4.98;63.86;98296.31;10379953;28;20045;-75
2021/04/16 21:10:49;;;;;;;8.35;4.03;;;;;;;5.02;63.79;98288.41;10361233;28;20034;-75
2021/04/16 21:16:11;;;;;;;7.93;4.78;;;;;;;5.07;63.87;98277.19;10375638;28;20045;-75
2021/04/16 21:21:35;;;;;;;8.15;4.38;;;;;;;5.05;64.19;98279.03;10364876;28;20041;-75
2021/04/16 21:26:59;;;;;;;8.18;4.68;;;;;;;5.05;64.28;98259.66;10375735;28;20424;-75
2021/04/16 21:32:37;;;;;;;6.83;4.57;;;;;;;4.97;64.34;98278.25;10377754;28;20052;-75
2021/04/16 21:37:58;;;;;;;7.35;4.60;;;;;;;4.99;64.60;98281.19;10401052;28;20374;-75
2021/04/16 21:43:19;;;;;;;6.65;4.53;;;;;;;5.00;64.66;98277.88;10387223;28;20049;-75
2021/04/16 21:48:54;;;;;;;7.38;4.10;;;;;;;5.04;64.40;98286.59;10400819;28;20041;-75
2021/04/16 21:54:26;;;;;;;8.75;4.63;;;;;;;5.10;64.57;98275.38;10400964;28;20480;-75
2021/04/16 21:59:46;;;;;;;7.07;4.60;;;;;;;5.12;64.41;98273.56;10414840;28;20041;-76
2021/04/16 22:05:14;;;;;;;13.70;7.53;;;;;;;5.08;64.40;98273.16;10386508;28;20552;-75
2021/04/16 22:10:57;;;;;;;16.63;9.00;;;;;;;4.98;65.08;98271.41;10400145;28;20120;-75
2021/04/16 22:16:31;;;;;;;15.10;9.43;;;;;;;4.85;65.61;98267.47;10399853;28;20053;-75
2021/04/16 22:22:25;;;;;;;13.82;8.95;;;;;;;4.81;65.63;98266.34;10345886;28;20057;-75
2021/04/16 22:27:49;;;;;;;15.35;7.65;;;;;;;4.84;65.93;98273.56;10373234;28;20057;-75
2021/04/16 22:33:32;;;;;;;12.13;5.57;;;;;;;4.78;65.50;98268.16;10358975;28;20042;-75
2021/04/16 22:38:53;;;;;;;8.63;5.55;;;;;;;4.65;65.39;98262.75;10372893;28;20045;-75
2021/04/16 22:44:29;;;;;;;9.48;5.88;;;;;;;4.63;65.86;98256.97;10331640;28;20500;-75
2021/04/16 22:49:56;;;;;;;9.68;5.57;;;;;;;4.62;66.72;98244.44;10378697;28;20052;-75
2021/04/16 22:55:41;;;;;;;9.18;5.97;;;;;;;4.65;66.79;98228.81;10366605;28;20153;-75
2021/04/16 23:01:06;;;;;;;7.43;5.07;;;;;;;4.61;66.28;98231.91;10353322;28;20052;-75
2021/04/16 23:06:33;;;;;;;7.80;5.07;;;;;;;4.62;66.82;98229.88;10366392;28;20100;-75
2021/04/16 23:11:56;;;;;;;8.30;5.15;;;;;;;4.62;66.85;98222.31;10379696;28;20161;-75
2021/04/16 23:17:15;;;;;;;7.38;5.10;;;;;;;4.62;67.01;98227.13;10379444;28;20050;-75
2021/04/16 23:22:47;;;;;;;8.10;5.15;;;;;;;4.61;66.95;98218.09;10385163;28;20053;-75
2021/04/16 23:28:41;;;;;;;10.45;5.75;;;;;;;4.60;66.49;98219.38;10392480;28;20045;-75
2021/04/16 23:34:17;;;;;;;8.63;5.50;;;;;;;4.62;67.33;98207.75;10405800;28;20047;-75
2021/04/16 23:39:48;;;;;;;7.50;5.05;;;;;;;4.55;67.05;98207.19;10405642;28;20041;-75
2021/04/16 23:45:10;;;;;;;8.82;6.00;;;;;;;4.55;66.83;98209.22;10405532;28;20052;-75
2021/04/16 23:50:30;;;;;;;9.77;5.38;;;;;;;4.56;66.89;98191.34;10405420;28;20476;-75
2021/04/16 23:55:50;;;;;;;8.75;5.57;;;;;;;4.54;67.25;98189.13;10432958;28;20050;-75
